Time;durP1;ratioP1;P1;durP2;ratioP2;P2;SDS_P1;SDS_P2;PMS_P1;PMS_P2;Temp;Humidity;BMP_temperature;BMP_pressure;BME280_temperature;BME280_humidity;BME280_pressure;Samples;Min_cycle;Max_cycle;Signal;HPM_P1;HPM_P2
2021/09/27 00:01:22;;;;;;;22.35;16.63;;;;;;;17.37;85.40;100580.28;5006520;28;21180;-74
2021/09/27 00:03:47;;;;;;;25.08;17.15;;;;;;;17.41;85.52;100575.88;5006593;28;20420;-75
2021/09/27 00:06:13;;;;;;;27.40;17.87;;;;;;;17.44;85.76;100572.56;5012659;28;20415;-75
2021/09/27 00:08:38;;;;;;;17.20;14.48;;;;;;;17.45;85.77;100575.00;5009976;28;20421;-74
2021/09/27 00:11:20;;;;;;;17.70;14.60;;;;;;;17.45;85.75;100572.25;5012709;28;20484;-75
2021/09/27 00:13:48;;;;;;;21.70;16.98;;;;;;;17.44;85.78;100578.84;5009086;28;20851;-75
2021/09/27 00:16:14;;;;;;;23.35;18.45;;;;;;;17.45;85.85;100572.25;5012360;28;20884;-75
2021/09/27 00:18:40;;;;;;;24.95;17.63;;;;;;;17.45;85.93;100576.94;5008278;28;20412;-75
2021/09/27 00:21:09;;;;;;;23.25;17.48;;;;;;;17.43;85.98;100574.47;4995709;28;20491;-75
2021/09/27 00:23:36;;;;;;;23.30;16.88;;;;;;;17.42;85.92;100588.47;5009843;28;20448;-75
2021/09/27 00:26:04;;;;;;;23.27;17.13;;;;;;;17.44;85.76;100589.00;5012531;28;20515;-77
2021/09/27 00:28:29;;;;;;;24.10;17.40;;;;;;;17.42;85.75;100589.28;5012901;28;20422;-75
2021/09/27 00:30:55;;;;;;;22.30;17.17;;;;;;;17.41;85.79;100590.41;5002968;28;20777;-75
2021/09/27 00:33:23;;;;;;;31.02;18.70;;;;;;;17.43;86.09;100587.34;4996563;28;20413;-75
2021/09/27 00:35:48;;;;;;;22.67;17.17;;;;;;;17.42;86.08;100578.31;5012358;28;20407;-75
2021/09/27 00:38:15;;;;;;;25.77;19.23;;;;;;;17.40;86.13;100577.78;5012278;28;20499;-75
2021/09/27 00:40:48;;;;;;;22.35;18.15;;;;;;;17.39;86.17;100578.88;5010743;28;20815;-75
2021/09/27 00:43:14;;;;;;;21.35;18.23;;;;;;;17.38;86.11;100577.28;5008034;28;20417;-75
2021/09/27 00:45:45;;;;;;;23.05;17.30;;;;;;;17.41;85.98;100576.69;5013766;28;20416;-75
2021/09/27 00:48:11;;;;;;;21.80;18.58;;;;;;;17.43;85.86;100565.44;5010674;28;20479;-75
2021/09/27 00:50:42;;;;;;;25.08;19.85;;;;;;;17.44;85.75;100570.63;4996358;28;20424;-75
2021/09/27 00:53:18;;;;;;;27.50;21.10;;;;;;;17.45;85.66;100565.97;5005860;28;20422;-76
2021/09/27 00:55:44;;;;;;;27.40;21.08;;;;;;;17.43;85.88;100558.03;5002673;28;20409;-75
2021/09/27 00:58:10;;;;;;;31.80;22.42;;;;;;;17.42;85.79;100552.84;4998743;28;20417;-75
2021/09/27 01:00:36;;;;;;;37.45;22.52;;;;;;;17.41;85.75;100559.44;5011006;28;20451;-76
2021/09/27 01:03:02;;;;;;;32.05;21.80;;;;;;;17.35;85.79;100550.44;5012969;28;20416;-75
2021/09/27 01:05:28;;;;;;;31.13;21.38;;;;;;;17.29;85.77;100550.78;5012595;28;20536;-75
2021/09/27 01:08:00;;;;;;;34.47;22.95;;;;;;;17.25;85.71;100547.81;5007603;28;20961;-75
2021/09/27 01:10:37;;;;;;;35.33;23.43;;;;;;;17.23;85.83;100550.00;5011780;28;20593;-75
2021/09/27 01:13:30;;;;;;;33.08;22.98;;;;;;;17.23;85.67;100547.25;5007909;28;20425;-76
2021/09/27 01:16:28;;;;;;;28.35;21.80;;;;;;;17.22;85.56;100547.56;5006456;28;20420;-75
2021/09/27 01:19:12;;;;;;;30.77;21.63;;;;;;;17.15;85.42;100550.63;4993725;28;20527;-75
2021/09/27 01:21:56;;;;;;;29.30;22.10;;;;;;;17.13;85.57;100542.69;5012310;28;20978;-75
2021/09/27 01:24:56;;;;;;;28.35;21.23;;;;;;;17.10;85.37;100542.44;5010109;28;20419;-76
2021/09/27 01:27:49;;;;;;;33.13;22.63;;;;;;;17.08;85.34;100550.13;5008540;28;21021;-75
2021/09/27 01:30:22;;;;;;;30.15;22.42;;;;;;;17.03;85.11;100544.66;5011123;28;20425;-75
2021/09/27 01:32:55;;;;;;;30.90;23.67;;;;;;;17.00;85.28;100548.81;5010608;28;20416;-75
2021/09/27 01:35:36;;;;;;;25.98;20.77;;;;;;;16.95;85.35;100548.84;5012447;28;20426;-75
2021/09/27 01:38:31;;;;;;;24.77;20.13;;;;;;;16.92;85.49;100546.69;5008107;28;20432;-75
2021/09/27 01:41:24;;;;;;;24.45;20.65;;;;;;;16.92;85.51;100549.41;5010360;28;20420;-75
2021/09/27 01:44:12;;;;;;;26.27;20.85;;;;;;;16.93;85.53;100550.22;5008083;28;20420;-75
2021/09/27 01:46:56;;;;;;;26.05;20.83;;;;;;;16.92;85.57;100549.41;5012001;28;20405;-76
2021/09/27 01:49:39;;;;;;;25.55;20.50;;;;;;;16.92;85.60;100543.13;5007456;28;20420;-76
2021/09/27 01:52:15;;;;;;;24.88;19.58;;;;;;;16.93;85.55;100550.22;5010802;28;20419;-75
2021/09/27 01:54:45;;;;;;;25.87;20.77;;;;;;;16.94;85.38;100549.13;5008214;28;20769;-76
2021/09/27 01:57:36;;;;;;;27.75;21.35;;;;;;;16.88;85.37;100542.88;5013227;28;20471;-75
2021/09/27 02:00:04;;;;;;;26.27;21.73;;;;;;;16.85;85.48;100539.88;5006598;28;20412;-75
2021/09/27 02:02:55;;;;;;;29.38;22.42;;;;;;;16.79;85.54;100539.13;5008549;28;20499;-75
2021/09/27 02:05:25;;;;;;;26.63;22.23;;;;;;;16.75;85.68;100535.31;5007811;28;20408;-75
2021/09/27 02:08:05;;;;;;;28.90;21.92;;;;;;;16.72;85.82;100532.31;5004979;28;20434;-75
2021/09/27 02:11:18;;;;;;;27.75;22.02;;;;;;;16.73;85.80;100532.00;5010691;28;20513;-75
2021/09/27 02:14:02;;;;;;;31.85;23.52;;;;;;;16.79;85.95;100530.06;4992634;28;20417;-75
2021/09/27 02:17:00;;;;;;;30.02;21.77;;;;;;;16.79;85.57;100527.34;5009386;28;20481;-76
2021/09/27 02:19:51;;;;;;;28.50;21.90;;;;;;;16.77;85.33;100537.75;5006203;28;20416;-75
2021/09/27 02:22:42;;;;;;;28.10;21.20;;;;;;;16.76;85.38;100533.38;4983805;28;20504;-75
2021/09/27 02:25:31;;;;;;;27.98;22.83;;;;;;;16.73;85.11;100536.69;5007275;28;20405;-76
2021/09/27 02:27:57;;;;;;;32.33;22.33;;;;;;;16.66;85.41;100536.19;5006237;28;20929;-75
2021/09/27 02:30:34;;;;;;;28.55;21.63;;;;;;;16.62;85.48;100544.13;5001949;28;20772;-75
2021/09/27 02:33:03;;;;;;;26.60;21.25;;;;;;;16.59;85.51;100542.78;5005117;28;20408;-75
2021/09/27 02:35:39;;;;;;;27.55;21.17;;;;;;;16.54;85.85;100550.16;5008701;28;20748;-75
2021/09/27 02:38:35;;;;;;;28.23;21.33;;;;;;;16.54;85.84;100548.25;5007321;28;20462;-75
2021/09/27 02:41:22;;;;;;;27.10;21.77;;;;;;;16.51;85.83;100545.25;4992557;28;20407;-75
2021/09/27 02:43:47;;;;;;;26.70;21.08;;;;;;;16.54;85.76;100555.63;5007193;28;20428;-75
2021/09/27 02:46:14;;;;;;;25.58;20.58;;;;;;;16.54;85.68;100550.97;5011937;28;20400;-75
2021/09/27 02:48:42;;;;;;;39.13;22.60;;;;;;;16.58;85.63;100545.78;5003681;28;20417;-75
2021/09/27 02:51:10;;;;;;;32.45;22.30;;;;;;;16.59;85.32;100553.72;5006428;28;20448;-75
2021/09/27 02:53:36;;;;;;;32.35;22.23;;;;;;;16.53;85.20;100554.81;5008057;28;20403;-75
2021/09/27 02:56:04;;;;;;;28.17;21.80;;;;;;;16.50;85.42;100552.63;4987161;28;20397;-76
2021/09/27 02:58:57;;;;;;;28.90;22.15;;;;;;;16.45;85.39;100549.94;5004540;28;20408;-75
2021/09/27 03:01:35;;;;;;;26.45;21.40;;;;;;;16.43;85.66;100538.44;5006949;28;20930;-75
2021/09/27 03:04:05;;;;;;;27.90;21.75;;;;;;;16.39;85.65;100534.66;5003746;28;20759;-75
2021/09/27 03:06:52;;;;;;;27.85;21.77;;;;;;;16.38;85.63;100529.47;5004857;28;20417;-76
2021/09/27 03:09:39;;;;;;;28.33;21.27;;;;;;;16.37;85.69;100536.00;5004184;28;20424;-75
2021/09/27 03:12:13;;;;;;;30.58;21.77;;;;;;;16.37;85.49;100525.06;5010796;28;20448;-75
2021/09/27 03:15:01;;;;;;;29.83;23.10;;;;;;;16.36;85.32;100527.03;5008204;28;20785;-75
2021/09/27 03:17:55;;;;;;;31.02;22.38;;;;;;;16.35;85.36;100533.56;5002727;28;20776;-75
2021/09/27 03:20:52;;;;;;;30.80;21.80;;;;;;;16.36;85.46;100520.72;5005895;28;20440;-75
2021/09/27 03:23:52;;;;;;;30.48;22.25;;;;;;;16.37;85.26;100520.44;5007846;28;20503;-75
2021/09/27 03:26:45;;;;;;;40.80;23.52;;;;;;;16.42;85.18;100528.63;4989894;28;20470;-75
2021/09/27 03:29:26;;;;;;;31.58;22.38;;;;;;;16.43;84.90;100524.78;4985271;28;20416;-75
2021/09/27 03:32:06;;;;;;;30.30;22.42;;;;;;;16.40;84.79;100527.28;5010502;28;20783;-75
2021/09/27 03:35:03;;;;;;;36.03;22.60;;;;;;;16.38;84.49;100518.50;5009615;28;20906;-75
2021/09/27 03:38:04;;;;;;;33.33;25.40;;;;;;;16.37;84.50;100512.22;4983111;28;20475;-75
2021/09/27 03:40:44;;;;;;;30.10;22.42;;;;;;;16.36;84.67;100515.25;5012498;28;20495;-75
2021/09/27 03:43:19;;;;;;;37.55;24.85;;;;;;;16.37;84.63;100514.97;5011418;28;20547;-75
2021/09/27 03:45:54;;;;;;;37.03;23.70;;;;;;;16.37;84.78;100516.88;5014185;28;20957;-75
2021/09/27 03:48:47;;;;;;;35.92;23.42;;;;;;;16.35;84.63;100517.16;5006604;28;20417;-75
2021/09/27 03:51:22;;;;;;;36.83;23.58;;;;;;;16.30;84.50;100514.44;5011326;28;20763;-75
2021/09/27 03:53:53;;;;;;;33.60;22.25;;;;;;;16.29;84.50;100512.81;5013343;28;20451;-75
2021/09/27 03:56:33;;;;;;;33.40;21.73;;;;;;;16.26;84.33;100518.03;5013884;28;20891;-75
2021/09/27 03:59:06;;;;;;;30.48;21.30;;;;;;;16.24;83.96;100517.47;5004266;28;20833;-75
2021/09/27 04:01:38;;;;;;;37.33;24.02;;;;;;;16.21;84.17;100513.41;5014167;28;20409;-75
2021/09/27 04:04:30;;;;;;;38.15;22.90;;;;;;;16.20;84.45;100513.69;5012188;28;20405;-75
2021/09/27 04:07:08;;;;;;;30.75;21.88;;;;;;;16.18;84.30;100519.44;5009030;28;20416;-76
2021/09/27 04:09:41;;;;;;;34.88;23.05;;;;;;;16.17;84.30;100517.00;4993151;28;20437;-75
2021/09/27 04:12:39;;;;;;;37.17;23.60;;;;;;;16.16;84.27;100520.81;5013581;28;20473;-75
2021/09/27 04:15:36;;;;;;;35.78;23.27;;;;;;;16.15;84.12;100516.44;5011893;28;20424;-75
2021/09/27 04:18:25;;;;;;;34.35;22.70;;;;;;;16.10;83.76;100509.88;4956346;28;20422;-75
2021/09/27 04:20:58;;;;;;;37.00;23.20;;;;;;;16.08;83.85;100522.22;5005989;28;20424;-75
2021/09/27 04:23:33;;;;;;;31.23;22.10;;;;;;;16.04;83.59;100518.38;5008041;28;20474;-75
2021/09/27 04:26:02;;;;;;;31.30;22.60;;;;;;;16.00;83.48;100512.66;5013678;28;20455;-75
2021/09/27 04:29:04;;;;;;;48.38;22.10;;;;;;;15.97;83.03;100518.69;5002416;28;20455;-75
2021/09/27 04:32:07;;;;;;;30.42;21.30;;;;;;;15.96;83.53;100524.44;5009534;28;20412;-75
2021/09/27 04:34:53;;;;;;;35.58;23.70;;;;;;;15.95;84.00;100520.06;5009601;28;20443;-75
2021/09/27 04:37:20;;;;;;;26.35;19.85;;;;;;;15.95;83.54;100526.34;5008424;28;20416;-75
2021/09/27 04:39:47;;;;;;;20.92;16.98;;;;;;;15.95;83.42;100526.34;5009364;28;20404;-75
2021/09/27 04:42:25;;;;;;;19.45;15.98;;;;;;;15.92;83.18;100526.91;5009043;28;20411;-75
2021/09/27 04:45:20;;;;;;;19.70;16.10;;;;;;;15.91;83.24;100525.28;5008065;28;20432;-75
2021/09/27 04:48:03;;;;;;;22.25;15.93;;;;;;;15.79;83.73;100523.94;4983970;28;20799;-77
2021/09/27 04:51:06;;;;;;;19.00;15.85;;;;;;;15.72;83.50;100516.03;5000113;28;20515;-74
2021/09/27 04:53:47;;;;;;;22.30;15.70;;;;;;;15.67;83.21;100528.91;5001412;28;20754;-74
2021/09/27 04:56:31;;;;;;;21.70;15.83;;;;;;;15.64;83.13;100532.19;5000021;28;22823;-76
2021/09/27 04:59:22;;;;;;;20.85;16.63;;;;;;;15.63;83.35;100522.34;4984628;28;20940;-79
2021/09/27 05:01:58;;;;;;;23.08;16.65;;;;;;;15.64;83.38;100522.09;4996036;28;20449;-74
2021/09/27 05:04:44;;;;;;;24.52;17.88;;;;;;;15.64;83.77;100532.19;4983246;28;20473;-76
2021/09/27 05:07:40;;;;;;;21.80;16.58;;;;;;;15.62;83.39;100535.19;5000886;28;20417;-74
2021/09/27 05:10:43;;;;;;;22.67;17.90;;;;;;;15.63;83.68;100528.63;4998448;28;20416;-77
2021/09/27 05:13:45;;;;;;;23.50;17.88;;;;;;;15.66;83.79;100540.91;4999749;28;20420;-76
2021/09/27 05:16:49;;;;;;;22.70;17.08;;;;;;;15.66;83.36;100535.47;4999766;28;20420;-76
2021/09/27 05:19:53;;;;;;;25.30;18.30;;;;;;;15.70;83.70;100540.09;5000384;28;20442;-76
2021/09/27 05:22:34;;;;;;;18.17;16.23;;;;;;;15.78;83.69;100535.97;4998912;28;20465;-76
2021/09/27 05:25:31;;;;;;;24.27;20.45;;;;;;;15.84;83.64;100543.09;4999466;28;20478;-76
2021/09/27 05:28:20;;;;;;;23.60;18.98;;;;;;;15.84;83.63;100543.09;4999879;28;20768;-76
2021/09/27 05:31:06;;;;;;;27.77;19.02;;;;;;;15.87;83.94;100539.78;4999281;28;20433;-76
2021/09/27 05:34:00;;;;;;;32.00;21.33;;;;;;;15.93;84.42;100542.22;5000840;28;20504;-76
2021/09/27 05:36:50;;;;;;;24.73;18.70;;;;;;;15.97;84.29;100535.09;4999588;28;20984;-76
2021/09/27 05:39:56;;;;;;;20.35;17.17;;;;;;;16.04;84.07;100534.78;5001997;28;20448;-77
2021/09/27 05:42:55;;;;;;;22.98;18.15;;;;;;;16.05;83.67;100537.25;5001653;28;20444;-77
2021/09/27 05:45:42;;;;;;;22.17;16.33;;;;;;;16.06;83.78;100543.56;4998860;28;20416;-75
2021/09/27 05:48:31;;;;;;;24.23;16.33;;;;;;;16.02;83.44;100535.09;5000746;28;20405;-75
2021/09/27 05:51:01;;;;;;;24.55;17.00;;;;;;;16.00;83.36;100536.47;5000596;28;20490;-75
2021/09/27 05:53:35;;;;;;;24.00;17.55;;;;;;;15.99;83.60;100532.91;4982825;28;20471;-76
2021/09/27 05:56:20;;;;;;;22.55;17.13;;;;;;;16.02;83.77;100539.72;5000003;28;20882;-75
2021/09/27 05:59:06;;;;;;;25.42;17.70;;;;;;;16.05;83.77;100536.44;5000157;28;20862;-75
2021/09/27 06:01:44;;;;;;;31.23;18.50;;;;;;;16.04;83.54;100538.34;4998571;28;20583;-76
2021/09/27 06:04:25;;;;;;;30.60;19.98;;;;;;;16.04;83.50;100534.78;5001884;28;20415;-76
2021/09/27 06:07:01;;;;;;;23.17;16.60;;;;;;;16.08;83.57;100531.22;4998954;28;20980;-76
2021/09/27 06:09:49;;;;;;;21.67;16.38;;;;;;;16.16;83.70;100529.03;4999676;28;20427;-76
2021/09/27 06:13:00;;;;;;;21.30;16.75;;;;;;;16.16;83.60;100538.03;4998339;28;20429;-75
2021/09/27 06:15:36;;;;;;;23.33;16.77;;;;;;;16.16;83.91;100546.25;4968134;28;20435;-76
2021/09/27 06:18:11;;;;;;;16.83;14.83;;;;;;;16.18;83.60;100537.75;4998220;28;20471;-76
2021/09/27 06:21:06;;;;;;;15.70;14.05;;;;;;;16.28;82.92;100546.72;4997239;28;20412;-75
2021/09/27 06:23:41;;;;;;;20.92;14.80;;;;;;;16.48;82.62;100538.44;4997297;28;20417;-76
2021/09/27 06:26:12;;;;;;;20.93;14.93;;;;;;;16.64;82.06;100539.19;4998388;28;20408;-76
2021/09/27 06:28:56;;;;;;;16.77;14.85;;;;;;;16.78;81.84;100542.94;4995577;28;20496;-76
2021/09/27 06:31:32;;;;;;;15.97;13.13;;;;;;;16.87;81.94;100532.19;4999212;28;20443;-76
2021/09/27 06:34:06;;;;;;;18.63;14.38;;;;;;;17.04;81.49;100530.72;4982914;28;20419;-76
2021/09/27 06:36:33;;;;;;;15.18;13.63;;;;;;;17.03;81.80;100529.06;4999363;28;20768;-76
2021/09/27 06:39:02;;;;;;;19.02;13.50;;;;;;;16.92;81.23;100527.53;4999402;28;20420;-76
2021/09/27 06:41:32;;;;;;;20.60;15.25;;;;;;;16.83;81.81;100522.91;4998064;28;20479;-76
2021/09/27 06:43:57;;;;;;;17.52;14.65;;;;;;;16.75;82.46;100523.53;4999782;28;20408;-76
2021/09/27 06:46:22;;;;;;;17.10;14.50;;;;;;;16.71;83.17;100527.94;4997311;28;21044;-76
2021/09/27 06:48:48;;;;;;;16.40;14.80;;;;;;;16.66;83.48;100534.28;4979030;28;20432;-76
2021/09/27 06:51:14;;;;;;;18.77;14.68;;;;;;;16.58;83.79;100543.06;4962223;28;20536;-76
2021/09/27 06:53:39;;;;;;;21.30;16.00;;;;;;;16.53;84.02;100535.66;4995864;28;20510;-76
2021/09/27 06:56:05;;;;;;;20.53;15.77;;;;;;;16.56;84.44;100535.13;4975380;28;20503;-76
2021/09/27 06:58:31;;;;;;;21.60;17.05;;;;;;;16.65;84.68;100535.38;4993130;28;20629;-76
2021/09/27 07:00:57;;;;;;;20.10;16.67;;;;;;;16.85;84.18;100532.50;4980960;28;20471;-76
2021/09/27 07:03:22;;;;;;;21.35;16.85;;;;;;;17.08;83.53;100530.97;4998709;28;20515;-76
2021/09/27 07:05:48;;;;;;;18.63;16.67;;;;;;;17.16;83.13;100532.28;5000127;28;20996;-76
2021/09/27 07:08:13;;;;;;;23.08;17.25;;;;;;;17.16;82.64;100529.53;4995929;28;20897;-77
2021/09/27 07:10:39;;;;;;;23.17;17.20;;;;;;;17.15;83.05;100527.88;4998412;28;20527;-76
2021/09/27 07:13:05;;;;;;;19.00;16.65;;;;;;;17.07;83.09;100534.78;4998895;28;20847;-76
2021/09/27 07:15:31;;;;;;;20.60;17.85;;;;;;;16.96;83.55;100535.97;4999418;28;20409;-76
2021/09/27 07:17:56;;;;;;;20.83;18.37;;;;;;;16.93;83.92;100531.88;4998764;28;20714;-76
2021/09/27 07:20:25;;;;;;;23.70;18.77;;;;;;;16.97;84.21;100537.59;5000243;28;20454;-76
2021/09/27 07:22:52;;;;;;;23.13;18.33;;;;;;;17.06;84.07;100527.66;4998567;28;20956;-76
2021/09/27 07:25:17;;;;;;;22.63;17.98;;;;;;;17.24;84.03;100537.94;4998369;28;21025;-76
2021/09/27 07:27:43;;;;;;;20.40;16.80;;;;;;;17.36;83.11;100534.81;4999989;28;20409;-77
2021/09/27 07:30:11;;;;;;;23.55;17.48;;;;;;;17.42;82.78;100541.91;4997998;28;20437;-76
2021/09/27 07:32:36;;;;;;;24.02;17.63;;;;;;;17.35;82.81;100535.94;4999143;28;20443;-76
2021/09/27 07:35:03;;;;;;;21.60;17.90;;;;;;;17.25;83.03;100553.28;4998109;28;20499;-76
2021/09/27 07:37:28;;;;;;;21.33;18.30;;;;;;;17.25;83.39;100555.19;4998754;28;20908;-76
2021/09/27 07:39:54;;;;;;;20.98;18.20;;;;;;;17.22;83.81;100556.59;4998828;28;20415;-77
2021/09/27 07:42:19;;;;;;;22.33;17.53;;;;;;;17.21;84.10;100556.88;4997029;28;20760;-76
2021/09/27 07:44:44;;;;;;;28.93;19.07;;;;;;;17.20;84.20;100561.53;4999292;28;20417;-76
2021/09/27 07:47:10;;;;;;;21.83;18.23;;;;;;;17.12;84.31;100559.41;4999514;28;20440;-76
2021/09/27 07:49:35;;;;;;;24.83;19.10;;;;;;;17.11;84.35;100544.91;4998875;28;20419;-76
2021/09/27 07:52:01;;;;;;;22.53;18.37;;;;;;;17.16;84.43;100554.19;4999838;28;20416;-76
2021/09/27 07:54:26;;;;;;;22.87;18.37;;;;;;;17.24;84.67;100540.69;4999454;28;20409;-75
2021/09/27 07:56:52;;;;;;;19.95;17.13;;;;;;;17.43;84.10;100552.56;4998294;28;20416;-75
2021/09/27 07:59:18;;;;;;;18.58;16.45;;;;;;;17.58;82.89;100551.66;4999375;28;20428;-75
2021/09/27 08:01:44;;;;;;;21.92;18.08;;;;;;;17.67;82.86;100546.34;4998898;28;20427;-75
2021/09/27 08:04:09;;;;;;;18.37;16.30;;;;;;;17.71;82.63;100548.22;5002974;28;20795;-76
2021/09/27 08:06:36;;;;;;;19.80;16.35;;;;;;;17.77;82.16;100549.81;5003730;28;20448;-76
2021/09/27 08:09:02;;;;;;;18.40;16.33;;;;;;;17.80;82.10;100549.22;5003123;28;20435;-75
2021/09/27 08:11:28;;;;;;;18.20;16.25;;;;;;;17.73;82.15;100551.47;4980366;28;20421;-76
2021/09/27 08:13:53;;;;;;;17.87;16.00;;;;;;;17.72;82.46;100546.28;5001940;28;20419;-75
2021/09/27 08:16:18;;;;;;;17.37;14.83;;;;;;;17.73;82.22;100542.44;5006053;28;20446;-75
2021/09/27 08:18:44;;;;;;;16.52;14.90;;;;;;;17.80;82.20;100541.00;4999392;28;20409;-76
2021/09/27 08:21:13;;;;;;;16.47;14.67;;;;;;;17.91;81.15;100538.97;5005127;28;20780;-76
2021/09/27 08:23:39;;;;;;;16.10;14.40;;;;;;;17.87;80.27;100538.72;5006644;28;20475;-75
2021/09/27 08:26:05;;;;;;;16.03;14.33;;;;;;;17.82;80.86;100535.19;5006284;28;20428;-76
2021/09/27 08:28:32;;;;;;;17.25;14.90;;;;;;;17.77;81.40;100538.84;5005966;28;20424;-76
2021/09/27 08:31:07;;;;;;;17.98;15.48;;;;;;;17.74;81.93;100539.41;5007762;28;20420;-75
2021/09/27 08:33:32;;;;;;;17.25;15.13;;;;;;;17.83;82.09;100534.94;5004765;28;20513;-76
2021/09/27 08:36:05;;;;;;;18.60;15.95;;;;;;;17.85;82.14;100537.38;5009466;28;20555;-75
2021/09/27 08:38:37;;;;;;;16.33;13.97;;;;;;;17.83;82.08;100534.94;4994477;28;20479;-76
2021/09/27 08:41:14;;;;;;;17.45;14.63;;;;;;;17.85;82.40;100538.19;5010877;28;20980;-75
2021/09/27 08:43:57;;;;;;;16.05;13.00;;;;;;;17.82;81.85;100535.19;5016162;28;20896;-75
2021/09/27 08:46:48;;;;;;;16.20;13.63;;;;;;;17.85;81.96;100535.44;5007531;28;20397;-76
2021/09/27 08:49:54;;;;;;;16.65;13.73;;;;;;;17.90;82.39;100543.63;5009462;28;20447;-75
2021/09/27 08:52:21;;;;;;;14.68;13.18;;;;;;;18.00;82.06;100538.03;5006119;28;20469;-76
2021/09/27 08:54:50;;;;;;;14.47;12.30;;;;;;;18.06;81.80;100541.53;5008978;28;20409;-75
2021/09/27 08:57:24;;;;;;;14.05;12.55;;;;;;;18.15;81.04;100542.50;5006538;28;20412;-76
2021/09/27 09:00:22;;;;;;;14.65;12.38;;;;;;;18.24;81.98;100537.19;5011347;28;20768;-76
2021/09/27 09:02:54;;;;;;;15.82;12.63;;;;;;;18.30;81.18;100550.56;5002952;28;20426;-75
2021/09/27 09:05:27;;;;;;;12.43;11.27;;;;;;;18.36;80.93;100546.63;5004119;28;20423;-76
2021/09/27 09:08:14;;;;;;;14.18;12.68;;;;;;;18.42;81.57;100539.97;5009410;28;20421;-76
2021/09/27 09:10:53;;;;;;;10.60;9.57;;;;;;;18.49;81.54;100545.91;5004735;28;20458;-76
2021/09/27 09:13:24;;;;;;;10.98;9.80;;;;;;;18.59;80.40;100531.25;5004576;28;20455;-76
2021/09/27 09:15:58;;;;;;;10.45;9.50;;;;;;;18.69;79.78;100530.28;5011087;28;20462;-76
2021/09/27 09:18:30;;;;;;;11.23;8.95;;;;;;;18.84;79.45;100536.38;5009368;28;20830;-76
2021/09/27 09:21:04;;;;;;;9.15;8.25;;;;;;;18.95;78.74;100535.13;4998433;28;20799;-76
2021/09/27 09:23:32;;;;;;;9.73;8.57;;;;;;;19.09;78.08;100540.66;5007718;28;20499;-76
2021/09/27 09:26:04;;;;;;;8.95;8.15;;;;;;;19.20;77.94;100528.38;5008370;28;20417;-76
2021/09/27 09:28:31;;;;;;;8.60;7.78;;;;;;;19.25;76.42;100533.81;4982452;28;20506;-75
2021/09/27 09:31:06;;;;;;;9.43;8.13;;;;;;;19.36;76.03;100527.03;5008262;28;20416;-76
2021/09/27 09:33:52;;;;;;;9.88;8.55;;;;;;;19.64;75.66;100523.25;4992715;28;20409;-76
2021/09/27 09:36:37;;;;;;;7.78;7.07;;;;;;;20.88;71.18;100516.50;5007676;28;20409;-76
2021/09/27 09:39:26;;;;;;;7.45;6.68;;;;;;;21.07;69.83;100524.59;5005048;28;20425;-76
2021/09/27 09:41:58;;;;;;;6.38;5.88;;;;;;;21.02;70.02;100522.78;5004595;28;20415;-76
2021/09/27 09:44:36;;;;;;;6.30;5.57;;;;;;;20.93;70.54;100529.34;4987716;28;20411;-77
2021/09/27 09:47:08;;;;;;;6.07;5.68;;;;;;;20.91;69.40;100515.09;5010191;28;20407;-76
2021/09/27 09:49:55;;;;;;;5.97;5.38;;;;;;;21.13;67.05;100524.19;5009962;28;20432;-76
2021/09/27 09:52:42;;;;;;;5.68;5.30;;;;;;;21.45;66.71;100531.38;5004198;28;20819;-76
2021/09/27 09:55:36;;;;;;;5.03;4.72;;;;;;;21.86;64.25;100525.59;5008073;28;20775;-76
2021/09/27 09:58:03;;;;;;;6.25;4.55;;;;;;;22.52;63.04;100523.69;5001798;28;20427;-76
2021/09/27 10:00:50;;;;;;;5.63;4.68;;;;;;;23.12;62.44;100518.19;5005274;28;20492;-76
2021/09/27 10:03:20;;;;;;;4.72;4.32;;;;;;;23.71;59.09;100520.03;5009648;28;20409;-76
2021/09/27 10:05:55;;;;;;;5.90;4.47;;;;;;;24.20;57.51;100524.09;5008383;28;20447;-76
2021/09/27 10:09:34;;;;;;;4.97;4.30;;;;;;;24.58;56.20;100518.50;5006064;28;20492;-76
2021/09/27 10:11:38;;;;;;;5.30;4.80;;;;;;;25.00;55.04;100518.50;4994113;28;20412;-76
2021/09/27 10:14:25;;;;;;;5.78;5.18;;;;;;;25.28;56.37;100519.56;4999123;28;20459;-76
2021/09/27 10:17:09;;;;;;;5.60;5.10;;;;;;;25.50;55.35;100515.59;5009487;28;20554;-77
2021/09/27 10:19:54;;;;;;;4.35;4.05;;;;;;;25.93;53.97;100527.00;5010732;28;20417;-77
2021/09/27 10:22:24;;;;;;;3.80;3.60;;;;;;;26.32;50.85;100517.19;5005679;28;20415;-76
2021/09/27 10:24:57;;;;;;;4.03;3.83;;;;;;;26.66;50.78;100519.47;4999631;28;20471;-73
2021/09/27 10:27:34;;;;;;;6.28;4.43;;;;;;;26.67;50.98;100515.53;5000858;28;20499;-77
2021/09/27 10:30:09;;;;;;;4.25;4.05;;;;;;;26.69;50.47;100513.22;4999930;28;20417;-76
2021/09/27 10:32:39;;;;;;;4.28;3.97;;;;;;;27.39;48.49;100505.31;4998173;28;20481;-73
2021/09/27 10:35:16;;;;;;;4.40;4.03;;;;;;;27.18;48.47;100518.63;4981307;28;20412;-77
2021/09/27 10:37:45;;;;;;;7.13;4.55;;;;;;;25.95;51.27;100515.56;5001941;28;20773;-77
2021/09/27 10:40:15;;;;;;;4.60;4.30;;;;;;;25.51;53.04;100515.28;5008066;28;20876;-76
2021/09/27 10:42:47;;;;;;;3.70;3.50;;;;;;;25.56;52.70;100515.03;5009022;28;20463;-77
2021/09/27 10:45:15;;;;;;;4.60;4.20;;;;;;;25.61;53.20;100516.78;4999808;28;20410;-77
2021/09/27 10:47:44;;;;;;;3.15;3.05;;;;;;;25.84;51.29;100506.88;5002755;28;20404;-76
2021/09/27 10:50:18;;;;;;;3.58;3.38;;;;;;;25.25;53.74;100511.94;5003019;28;20424;-77
2021/09/27 10:52:57;;;;;;;3.75;3.33;;;;;;;24.42;55.58;100511.91;4992585;28;20419;-76
2021/09/27 10:55:49;;;;;;;3.90;3.28;;;;;;;24.04;56.29;100519.44;5009057;28;20413;-76
2021/09/27 10:58:29;;;;;;;3.28;2.97;;;;;;;23.72;57.24;100515.34;5007738;28;20447;-77
2021/09/27 11:00:55;;;;;;;2.38;2.28;;;;;;;23.54;56.54;100505.47;5007787;28;20426;-77
2021/09/27 11:03:31;;;;;;;2.60;2.50;;;;;;;23.46;56.57;100504.34;4987778;28;20420;-77
2021/09/27 11:06:20;;;;;;;2.83;2.63;;;;;;;24.08;55.29;100512.06;5010188;28;20423;-76
2021/09/27 11:08:46;;;;;;;2.80;2.47;;;;;;;24.77;53.79;100513.28;4987441;28;20494;-77
2021/09/27 11:11:29;;;;;;;2.83;2.67;;;;;;;25.10;52.67;100505.03;5011877;28;20986;-77
2021/09/27 11:14:16;;;;;;;2.70;2.60;;;;;;;25.20;51.81;100507.38;5004162;28;20892;-77
2021/09/27 11:16:44;;;;;;;2.63;2.42;;;;;;;24.96;52.75;100501.72;5002689;28;20907;-76
2021/09/27 11:19:33;;;;;;;2.85;2.65;;;;;;;24.54;53.29;100500.91;5001038;28;20432;-77
2021/09/27 11:22:14;;;;;;;2.92;2.72;;;;;;;24.11;53.99;100501.16;5005062;28;20522;-76
2021/09/27 11:24:42;;;;;;;3.20;2.90;;;;;;;23.67;56.37;100499.75;5005942;28;20409;-76
2021/09/27 11:27:16;;;;;;;3.42;2.80;;;;;;;23.53;56.30;100496.38;4999813;28;20405;-77
2021/09/27 11:29:52;;;;;;;2.88;2.50;;;;;;;23.71;55.99;100502.66;4997395;28;20443;-77
2021/09/27 11:32:22;;;;;;;3.00;2.80;;;;;;;23.90;56.05;100502.25;4997216;28;20555;-77
2021/09/27 11:35:12;;;;;;;3.17;2.73;;;;;;;24.30;54.49;100498.00;5001422;28;20416;-77
2021/09/27 11:37:40;;;;;;;2.80;2.70;;;;;;;24.40;52.74;100482.94;5004144;28;20416;-76
2021/09/27 11:40:06;;;;;;;3.20;2.90;;;;;;;24.31;53.75;100484.94;4986635;28;20492;-76
2021/09/27 11:42:35;;;;;;;2.70;2.50;;;;;;;24.45;53.63;100486.31;5006416;28;21068;-76
2021/09/27 11:45:01;;;;;;;2.95;2.75;;;;;;;24.36;53.87;100485.56;5009630;28;20474;-76
2021/09/27 11:47:41;;;;;;;2.90;2.67;;;;;;;24.01;55.42;100486.88;5008097;28;20425;-76
2021/09/27 11:50:14;;;;;;;3.10;2.70;;;;;;;23.92;55.73;100486.94;4999938;28;20424;-76
2021/09/27 11:52:51;;;;;;;2.72;2.53;;;;;;;23.88;55.14;100485.16;5001109;28;20844;-76
2021/09/27 11:55:26;;;;;;;2.55;2.45;;;;;;;23.81;55.41;100484.88;4986398;28;20491;-76
2021/09/27 11:58:13;;;;;;;4.10;2.70;;;;;;;23.74;56.38;100485.41;5000040;28;20405;-77